sensor_id;sensor_type;location;lat;lon;timestamp;pressure;altitude;pressure_sealevel;temperature;humidity
65614;BME280;52283;49.292;10.572;2022-12-29T00:02:19;96071.28;;;6.06;100.00
65614;BME280;52283;49.292;10.572;2022-12-29T00:04:46;96060.94;;;6.07;100.00
65614;BME280;52283;49.292;10.572;2022-12-29T00:07:12;96066.16;;;6.20;100.00
65614;BME280;52283;49.292;10.572;2022-12-29T00:09:38;96057.28;;;6.16;100.00
65614;BME280;52283;49.292;10.572;2022-12-29T00:12:05;96055.81;;;6.20;100.00
65614;BME280;52283;49.292;10.572;2022-12-29T00:14:33;96062.91;;;6.21;100.00
65614;BME280;52283;49.292;10.572;2022-12-29T00:17:17;96054.25;;;6.34;100.00
65614;BME280;52283;49.292;10.572;2022-12-29T00:19:43;96053.47;;;6.33;100.00
65614;BME280;52283;49.292;10.572;2022-12-29T00:22:27;96052.72;;;6.33;100.00
65614;BME280;52283;49.292;10.572;2022-12-29T00:25:12;96051.75;;;6.36;100.00
65614;BME280;52283;49.292;10.572;2022-12-29T00:27:56;96047.78;;;6.42;100.00
65614;BME280;52283;49.292;10.572;2022-12-29T00:30:42;96036.00;;;6.48;100.00
65614;BME280;52283;49.292;10.572;2022-12-29T00:33:29;96032.53;;;6.53;100.00
65614;BME280;52283;49.292;10.572;2022-12-29T00:36:16;96027.31;;;6.60;100.00
65614;BME280;52283;49.292;10.572;2022-12-29T00:38:47;96021.75;;;6.60;100.00
65614;BME280;52283;49.292;10.572;2022-12-29T00:41:32;96034.53;;;6.72;100.00
65614;BME280;52283;49.292;10.572;2022-12-29T00:44:16;96025.69;;;6.74;100.00
65614;BME280;52283;49.292;10.572;2022-12-29T00:46:44;96022.72;;;6.78;100.00
65614;BME280;52283;49.292;10.572;2022-12-29T00:49:12;96030.59;;;6.85;100.00
65614;BME280;52283;49.292;10.572;2022-12-29T00:51:58;96020.25;;;6.85;100.00
65614;BME280;52283;49.292;10.572;2022-12-29T00:54:25;96016.03;;;6.90;100.00
65614;BME280;52283;49.292;10.572;2022-12-29T00:56:52;96025.13;;;6.90;100.00
65614;BME280;52283;49.292;10.572;2022-12-29T00:59:19;96017.78;;;6.87;100.00
65614;BME280;52283;49.292;10.572;2022-12-29T01:01:47;96012.59;;;6.75;100.00
65614;BME280;52283;49.292;10.572;2022-12-29T01:04:14;96017.09;;;6.72;100.00
65614;BME280;52283;49.292;10.572;2022-12-29T01:06:41;96014.88;;;6.76;100.00
65614;BME280;52283;49.292;10.572;2022-12-29T01:09:08;96031.69;;;6.67;100.00
65614;BME280;52283;49.292;10.572;2022-12-29T01:11:53;96023.56;;;6.63;100.00
65614;BME280;52283;49.292;10.572;2022-12-29T01:14:20;96024.31;;;6.64;100.00
65614;BME280;52283;49.292;10.572;2022-12-29T01:16:48;96014.53;;;6.68;100.00
65614;BME280;52283;49.292;10.572;2022-12-29T01:19:15;96023.41;;;6.72;100.00
65614;BME280;52283;49.292;10.572;2022-12-29T01:21:42;96012.03;;;6.70;100.00
65614;BME280;52283;49.292;10.572;2022-12-29T01:24:08;96020.38;;;6.70;100.00
65614;BME280;52283;49.292;10.572;2022-12-29T01:26:35;96026.47;;;6.75;100.00
65614;BME280;52283;49.292;10.572;2022-12-29T01:29:02;96025.75;;;6.80;100.00
65614;BME280;52283;49.292;10.572;2022-12-29T01:31:28;96021.78;;;6.86;100.00
65614;BME280;52283;49.292;10.572;2022-12-29T01:33:56;96014.28;;;6.66;100.00
65614;BME280;52283;49.292;10.572;2022-12-29T01:36:24;96021.63;;;6.49;100.00
65614;BME280;52283;49.292;10.572;2022-12-29T01:38:50;96028.28;;;6.37;100.00
65614;BME280;52283;49.292;10.572;2022-12-29T01:41:17;96029.00;;;6.32;100.00
65614;BME280;52283;49.292;10.572;2022-12-29T01:43:45;96028.16;;;6.26;100.00
65614;BME280;52283;49.292;10.572;2022-12-29T01:46:20;96010.34;;;6.32;100.00
65614;BME280;52283;49.292;10.572;2022-12-29T01:48:51;96012.84;;;6.30;100.00
65614;BME280;52283;49.292;10.572;2022-12-29T01:51:22;96015.41;;;6.34;100.00
65614;BME280;52283;49.292;10.572;2022-12-29T01:53:50;96015.53;;;6.25;100.00
65614;BME280;52283;49.292;10.572;2022-12-29T01:56:18;96014.47;;;6.22;100.00
65614;BME280;52283;49.292;10.572;2022-12-29T01:58:48;96022.25;;;6.18;100.00
65614;BME280;52283;49.292;10.572;2022-12-29T02:01:19;96009.41;;;6.21;100.00
65614;BME280;52283;49.292;10.572;2022-12-29T02:03:46;96017.94;;;6.17;100.00
65614;BME280;52283;49.292;10.572;2022-12-29T02:06:17;96005.47;;;6.07;100.00
65614;BME280;52283;49.292;10.572;2022-12-29T02:08:47;96004.13;;;6.02;100.00
65614;BME280;52283;49.292;10.572;2022-12-29T02:11:16;96012.81;;;6.10;100.00
65614;BME280;52283;49.292;10.572;2022-12-29T02:13:42;96005.53;;;6.13;100.00
65614;BME280;52283;49.292;10.572;2022-12-29T02:16:18;96003.09;;;6.20;100.00
65614;BME280;52283;49.292;10.572;2022-12-29T02:18:54;96007.41;;;6.21;100.00
65614;BME280;52283;49.292;10.572;2022-12-29T02:21:44;96004.78;;;6.32;100.00
65614;BME280;52283;49.292;10.572;2022-12-29T02:24:40;95996.78;;;6.40;100.00
65614;BME280;52283;49.292;10.572;2022-12-29T02:27:30;95995.31;;;6.45;100.00
65614;BME280;52283;49.292;10.572;2022-12-29T02:30:05;95995.31;;;6.45;100.00
65614;BME280;52283;49.292;10.572;2022-12-29T02:32:41;95997.41;;;6.50;100.00
65614;BME280;52283;49.292;10.572;2022-12-29T02:35:17;95992.84;;;6.47;100.00
65614;BME280;52283;49.292;10.572;2022-12-29T02:37:51;95990.41;;;6.54;100.00
65614;BME280;52283;49.292;10.572;2022-12-29T02:40:24;95978.03;;;6.55;100.00
65614;BME280;52283;49.292;10.572;2022-12-29T02:43:00;95976.47;;;6.49;100.00
65614;BME280;52283;49.292;10.572;2022-12-29T02:45:33;95968.31;;;6.45;100.00
65614;BME280;52283;49.292;10.572;2022-12-29T02:48:09;95970.66;;;6.47;100.00
65614;BME280;52283;49.292;10.572;2022-12-29T02:50:39;95975.22;;;6.50;100.00
65614;BME280;52283;49.292;10.572;2022-12-29T02:53:10;95976.78;;;6.56;100.00
65614;BME280;52283;49.292;10.572;2022-12-29T02:55:37;95970.19;;;6.54;100.00
65614;BME280;52283;49.292;10.572;2022-12-29T02:58:16;95970.81;;;6.63;100.00
65614;BME280;52283;49.292;10.572;2022-12-29T03:00:52;95972.91;;;6.68;100.00
65614;BME280;52283;49.292;10.572;2022-12-29T03:03:29;95962.09;;;6.76;100.00
65614;BME280;52283;49.292;10.572;2022-12-29T03:06:09;95962.41;;;6.84;100.00
65614;BME280;52283;49.292;10.572;2022-12-29T03:08:44;95967.97;;;6.84;100.00
65614;BME280;52283;49.292;10.572;2022-12-29T03:11:15;95966.78;;;6.90;100.00
65614;BME280;52283;49.292;10.572;2022-12-29T03:13:59;95962.75;;;6.91;100.00
65614;BME280;52283;49.292;10.572;2022-12-29T03:16:48;95965.28;;;6.89;100.00
65614;BME280;52283;49.292;10.572;2022-12-29T03:19:21;95962.00;;;6.91;100.00
65614;BME280;52283;49.292;10.572;2022-12-29T03:21:54;95961.78;;;6.94;100.00
65614;BME280;52283;49.292;10.572;2022-12-29T03:24:42;95952.84;;;6.85;100.00
65614;BME280;52283;49.292;10.572;2022-12-29T03:27:15;95953.81;;;6.82;100.00
65614;BME280;52283;49.292;10.572;2022-12-29T03:29:46;95950.28;;;6.81;100.00
65614;BME280;52283;49.292;10.572;2022-12-29T03:32:18;95949.25;;;6.79;100.00
65614;BME280;52283;49.292;10.572;2022-12-29T03:34:49;95954.59;;;6.82;100.00
65614;BME280;52283;49.292;10.572;2022-12-29T03:37:18;95953.56;;;6.80;100.00
65614;BME280;52283;49.292;10.572;2022-12-29T03:39:46;95951.53;;;6.80;100.00
65614;BME280;52283;49.292;10.572;2022-12-29T03:42:15;95952.06;;;6.84;100.00
65614;BME280;52283;49.292;10.572;2022-12-29T03:44:44;95961.66;;;6.83;100.00
65614;BME280;52283;49.292;10.572;2022-12-29T03:47:12;95956.31;;;6.80;100.00
65614;BME280;52283;49.292;10.572;2022-12-29T03:49:39;95952.56;;;6.83;100.00
65614;BME280;52283;49.292;10.572;2022-12-29T03:52:07;95955.13;;;6.86;100.00
65614;BME280;52283;49.292;10.572;2022-12-29T03:54:34;95949.09;;;6.88;100.00
65614;BME280;52283;49.292;10.572;2022-12-29T03:57:00;95952.84;;;6.85;100.00
65614;BME280;52283;49.292;10.572;2022-12-29T03:59:26;95942.22;;;6.83;100.00
65614;BME280;52283;49.292;10.572;2022-12-29T04:01:53;95942.94;;;6.78;100.00
65614;BME280;52283;49.292;10.572;2022-12-29T04:04:20;95926.13;;;6.87;100.00
65614;BME280;52283;49.292;10.572;2022-12-29T04:06:46;95933.47;;;6.90;100.00
65614;BME280;52283;49.292;10.572;2022-12-29T04:09:14;95940.00;;;6.87;100.00
65614;BME280;52283;49.292;10.572;2022-12-29T04:11:40;95934.44;;;6.87;100.00
65614;BME280;52283;49.292;10.572;2022-12-29T04:14:07;95932.44;;;6.88;100.00
65614;BME280;52283;49.292;10.572;2022-12-29T04:16:33;95936.25;;;6.90;100.00
65614;BME280;52283;49.292;10.572;2022-12-29T04:19:00;95936.00;;;6.94;100.00
65614;BME280;52283;49.292;10.572;2022-12-29T04:21:27;95941.34;;;6.97;100.00
65614;BME280;52283;49.292;10.572;2022-12-29T04:23:53;95936.06;;;6.99;100.00
65614;BME280;52283;49.292;10.572;2022-12-29T04:26:20;95941.44;;;7.09;100.00
65614;BME280;52283;49.292;10.572;2022-12-29T04:28:47;95943.50;;;7.14;100.00
65614;BME280;52283;49.292;10.572;2022-12-29T04:31:13;95941.28;;;7.23;100.00
65614;BME280;52283;49.292;10.572;2022-12-29T04:33:40;95942.88;;;7.30;100.00
65614;BME280;52283;49.292;10.572;2022-12-29T04:36:06;95947.19;;;7.31;100.00
65614;BME280;52283;49.292;10.572;2022-12-29T04:38:33;95942.38;;;7.31;100.00
65614;BME280;52283;49.292;10.572;2022-12-29T04:41:00;95936.59;;;7.35;100.00
65614;BME280;52283;49.292;10.572;2022-12-29T04:43:28;95940.38;;;7.32;100.00
65614;BME280;52283;49.292;10.572;2022-12-29T04:45:54;95941.34;;;7.29;100.00
65614;BME280;52283;49.292;10.572;2022-12-29T04:48:21;95940.13;;;7.36;100.00
65614;BME280;52283;49.292;10.572;2022-12-29T04:50:48;95935.00;;;7.28;100.00
65614;BME280;52283;49.292;10.572;2022-12-29T04:53:15;95944.13;;;7.29;100.00
65614;BME280;52283;49.292;10.572;2022-12-29T04:55:42;95939.81;;;7.28;100.00
65614;BME280;52283;49.292;10.572;2022-12-29T04:58:08;95940.03;;;7.24;100.00
65614;BME280;52283;49.292;10.572;2022-12-29T05:00:36;95938.09;;;7.30;100.00
65614;BME280;52283;49.292;10.572;2022-12-29T05:03:03;95944.41;;;7.31;100.00
65614;BME280;52283;49.292;10.572;2022-12-29T05:05:29;95946.19;;;7.34;100.00
65614;BME280;52283;49.292;10.572;2022-12-29T05:07:56;95944.44;;;7.37;100.00
65614;BME280;52283;49.292;10.572;2022-12-29T05:10:22;95937.84;;;7.34;100.00
65614;BME280;52283;49.292;10.572;2022-12-29T05:12:48;95951.69;;;7.28;100.00
65614;BME280;52283;49.292;10.572;2022-12-29T05:15:15;95947.63;;;7.24;100.00
65614;BME280;52283;49.292;10.572;2022-12-29T05:17:43;95944.53;;;7.16;100.00
65614;BME280;52283;49.292;10.572;2022-12-29T05:20:10;95945.75;;;7.10;100.00
65614;BME280;52283;49.292;10.572;2022-12-29T05:22:36;95950.47;;;7.03;100.00
65614;BME280;52283;49.292;10.572;2022-12-29T05:25:03;95942.34;;;6.94;100.00
65614;BME280;52283;49.292;10.572;2022-12-29T05:27:30;95936.94;;;6.85;100.00
65614;BME280;52283;49.292;10.572;2022-12-29T05:29:56;95929.59;;;6.82;100.00
65614;BME280;52283;49.292;10.572;2022-12-29T05:32:23;95939.72;;;6.85;100.00
65614;BME280;52283;49.292;10.572;2022-12-29T05:34:50;95942.97;;;6.84;100.00
65614;BME280;52283;49.292;10.572;2022-12-29T05:37:17;95935.91;;;6.83;100.00
65614;BME280;52283;49.292;10.572;2022-12-29T05:39:44;95948.03;;;6.85;100.00
65614;BME280;52283;49.292;10.572;2022-12-29T05:42:10;95937.41;;;6.84;100.00
65614;BME280;52283;49.292;10.572;2022-12-29T05:44:36;95948.22;;;6.76;100.00
65614;BME280;52283;49.292;10.572;2022-12-29T05:47:03;95948.97;;;6.77;100.00
65614;BME280;52283;49.292;10.572;2022-12-29T05:49:29;95951.00;;;6.76;100.00
65614;BME280;52283;49.292;10.572;2022-12-29T05:51:57;95942.94;;;6.78;100.00
65614;BME280;52283;49.292;10.572;2022-12-29T05:54:24;95939.13;;;6.76;100.00
65614;BME280;52283;49.292;10.572;2022-12-29T05:56:50;95940.13;;;6.72;100.00
65614;BME280;52283;49.292;10.572;2022-12-29T05:59:17;95944.91;;;6.72;100.00
65614;BME280;52283;49.292;10.572;2022-12-29T06:01:43;95945.13;;;6.68;100.00
65614;BME280;52283;49.292;10.572;2022-12-29T06:04:09;95943.44;;;6.77;100.00
65614;BME280;52283;49.292;10.572;2022-12-29T06:06:36;95948.03;;;6.85;100.00
65614;BME280;52283;49.292;10.572;2022-12-29T06:09:05;95945.81;;;6.89;100.00
65614;BME280;52283;49.292;10.572;2022-12-29T06:11:31;95944.78;;;6.87;100.00
65614;BME280;52283;49.292;10.572;2022-12-29T06:13:58;95941.78;;;6.90;100.00
65614;BME280;52283;49.292;10.572;2022-12-29T06:16:24;95944.84;;;6.92;100.00
65614;BME280;52283;49.292;10.572;2022-12-29T06:18:51;95943.84;;;6.95;100.00
65614;BME280;52283;49.292;10.572;2022-12-29T06:21:17;95948.13;;;6.91;100.00
65614;BME280;52283;49.292;10.572;2022-12-29T06:23:43;95946.38;;;6.93;100.00
65614;BME280;52283;49.292;10.572;2022-12-29T06:26:11;95946.13;;;6.97;100.00
65614;BME280;52283;49.292;10.572;2022-12-29T06:28:37;95943.13;;;7.00;100.00
65614;BME280;52283;49.292;10.572;2022-12-29T06:31:04;95954.03;;;7.04;100.00
65614;BME280;52283;49.292;10.572;2022-12-29T06:33:30;95950.97;;;7.02;100.00
65614;BME280;52283;49.292;10.572;2022-12-29T06:35:57;95943.63;;;6.99;100.00
65614;BME280;52283;49.292;10.572;2022-12-29T06:38:23;95951.50;;;7.06;100.00
65614;BME280;52283;49.292;10.572;2022-12-29T06:40:50;95949.94;;;6.99;100.00
65614;BME280;52283;49.292;10.572;2022-12-29T06:43:17;95946.13;;;6.97;100.00
65614;BME280;52283;49.292;10.572;2022-12-29T06:45:44;95952.22;;;7.01;100.00
65614;BME280;52283;49.292;10.572;2022-12-29T06:48:10;95944.91;;;7.03;100.00
65614;BME280;52283;49.292;10.572;2022-12-29T06:50:37;95945.66;;;6.98;100.00
65614;BME280;52283;49.292;10.572;2022-12-29T06:53:03;95936.72;;;6.89;100.00
65614;BME280;52283;49.292;10.572;2022-12-29T06:55:30;95935.25;;;6.93;100.00
65614;BME280;52283;49.292;10.572;2022-12-29T06:57:58;95945.75;;;6.84;100.00
65614;BME280;52283;49.292;10.572;2022-12-29T07:00:26;95942.66;;;6.76;100.00
65614;BME280;52283;49.292;10.572;2022-12-29T07:02:54;95949.69;;;6.71;100.00
65614;BME280;52283;49.292;10.572;2022-12-29T07:05:21;95952.97;;;6.70;100.00
65614;BME280;52283;49.292;10.572;2022-12-29T07:07:47;95952.41;;;6.66;100.00
65614;BME280;52283;49.292;10.572;2022-12-29T07:10:14;95951.94;;;6.67;100.00
65614;BME280;52283;49.292;10.572;2022-12-29T07:12:40;95964.75;;;6.65;100.00
65614;BME280;52283;49.292;10.572;2022-12-29T07:15:07;95970.59;;;6.67;100.00
65614;BME280;52283;49.292;10.572;2022-12-29T07:17:35;95978.44;;;6.68;100.00
65614;BME280;52283;49.292;10.572;2022-12-29T07:20:02;95979.69;;;6.67;100.00
65614;BME280;52283;49.292;10.572;2022-12-29T07:22:28;95971.06;;;6.65;100.00
65614;BME280;52283;49.292;10.572;2022-12-29T07:24:55;95963.44;;;6.60;100.00
65614;BME280;52283;49.292;10.572;2022-12-29T07:27:21;95972.97;;;6.54;100.00
65614;BME280;52283;49.292;10.572;2022-12-29T07:29:48;95975.84;;;6.39;100.00
65614;BME280;52283;49.292;10.572;2022-12-29T07:32:14;95975.16;;;6.24;100.00
65614;BME280;52283;49.292;10.572;2022-12-29T07:34:42;95980.50;;;6.27;100.00
65614;BME280;52283;49.292;10.572;2022-12-29T07:37:10;95982.09;;;6.14;100.00
65614;BME280;52283;49.292;10.572;2022-12-29T07:39:36;95975.03;;;6.13;100.00
65614;BME280;52283;49.292;10.572;2022-12-29T07:42:03;95971.97;;;6.10;100.00
65614;BME280;52283;49.292;10.572;2022-12-29T07:44:29;95961.38;;;6.09;100.00
65614;BME280;52283;49.292;10.572;2022-12-29T07:46:56;95973.34;;;6.21;100.00
65614;BME280;52283;49.292;10.572;2022-12-29T07:49:22;95974.81;;;6.16;100.00
65614;BME280;52283;49.292;10.572;2022-12-29T07:51:50;95970.19;;;6.07;100.00
65614;BME280;52283;49.292;10.572;2022-12-29T07:54:16;95983.34;;;6.13;100.00
65614;BME280;52283;49.292;10.572;2022-12-29T07:56:44;95981.47;;;6.04;100.00
65614;BME280;52283;49.292;10.572;2022-12-29T07:59:10;95984.03;;;6.07;100.00
65614;BME280;52283;49.292;10.572;2022-12-29T08:01:37;95983.06;;;6.10;100.00
65614;BME280;52283;49.292;10.572;2022-12-29T08:04:04;95989.16;;;6.15;100.00
65614;BME280;52283;49.292;10.572;2022-12-29T08:06:30;95983.78;;;6.05;100.00
65614;BME280;52283;49.292;10.572;2022-12-29T08:08:58;95987.66;;;6.14;100.00
65614;BME280;52283;49.292;10.572;2022-12-29T08:11:26;95972.81;;;6.17;100.00
65614;BME280;52283;49.292;10.572;2022-12-29T08:13:53;95970.31;;;6.19;100.00
65614;BME280;52283;49.292;10.572;2022-12-29T08:16:19;95986.72;;;6.22;100.00
65614;BME280;52283;49.292;10.572;2022-12-29T08:18:46;95982.31;;;6.30;100.00
65614;BME280;52283;49.292;10.572;2022-12-29T08:21:12;95976.47;;;6.28;100.00
65614;BME280;52283;49.292;10.572;2022-12-29T08:23:39;95978.66;;;6.45;100.00
65614;BME280;52283;49.292;10.572;2022-12-29T08:26:06;95978.66;;;6.45;100.00
65614;BME280;52283;49.292;10.572;2022-12-29T08:28:33;95971.41;;;6.47;100.00
65614;BME280;52283;49.292;10.572;2022-12-29T08:31:01;95981.59;;;6.56;100.00
65614;BME280;52283;49.292;10.572;2022-12-29T08:33:28;95988.22;;;6.64;100.00
65614;BME280;52283;49.292;10.572;2022-12-29T08:35:59;95975.41;;;6.66;100.00
65614;BME280;52283;49.292;10.572;2022-12-29T08:38:26;95989.66;;;6.80;100.00
65614;BME280;52283;49.292;10.572;2022-12-29T08:40:53;95997.63;;;6.92;100.00
65614;BME280;52283;49.292;10.572;2022-12-29T08:43:21;95986.00;;;6.94;100.00
65614;BME280;52283;49.292;10.572;2022-12-29T08:45:47;95989.50;;;7.15;100.00
65614;BME280;52283;49.292;10.572;2022-12-29T08:48:13;95999.72;;;7.29;100.00
65614;BME280;52283;49.292;10.572;2022-12-29T08:50:43;95987.47;;;7.47;100.00
65614;BME280;52283;49.292;10.572;2022-12-29T08:53:10;95993.78;;;7.47;100.00
65614;BME280;52283;49.292;10.572;2022-12-29T08:55:36;95995.19;;;7.69;100.00
65614;BME280;52283;49.292;10.572;2022-12-29T08:58:02;95989.44;;;7.72;100.00
65614;BME280;52283;49.292;10.572;2022-12-29T09:00:30;95982.91;;;7.81;100.00
65614;BME280;52283;49.292;10.572;2022-12-29T09:02:57;95986.97;;;7.85;99.04
65614;BME280;52283;49.292;10.572;2022-12-29T09:05:23;95988.19;;;7.79;99.62
65614;BME280;52283;49.292;10.572;2022-12-29T09:07:50;95992.75;;;7.76;99.82
65614;BME280;52283;49.292;10.572;2022-12-29T09:10:16;96001.56;;;7.75;100.00
65614;BME280;52283;49.292;10.572;2022-12-29T09:12:42;95988.38;;;7.70;100.00
65614;BME280;52283;49.292;10.572;2022-12-29T09:15:09;95985.88;;;7.72;100.00
65614;BME280;52283;49.292;10.572;2022-12-29T09:17:37;95984.16;;;7.80;100.00
65614;BME280;52283;49.292;10.572;2022-12-29T09:20:10;95983.41;;;7.79;100.00
65614;BME280;52283;49.292;10.572;2022-12-29T09:22:37;95985.69;;;7.81;100.00
65614;BME280;52283;49.292;10.572;2022-12-29T09:25:04;95986.22;;;7.85;100.00
65614;BME280;52283;49.292;10.572;2022-12-29T09:27:31;95982.94;;;7.86;100.00
65614;BME280;52283;49.292;10.572;2022-12-29T09:29:57;95979.66;;;7.88;100.00
65614;BME280;52283;49.292;10.572;2022-12-29T09:32:24;95985.75;;;7.92;100.00
65614;BME280;52283;49.292;10.572;2022-12-29T09:34:52;95987.03;;;7.97;100.00
65614;BME280;52283;49.292;10.572;2022-12-29T09:37:18;95987.81;;;8.03;100.00
65614;BME280;52283;49.292;10.572;2022-12-29T09:39:44;95994.38;;;8.00;100.00
65614;BME280;52283;49.292;10.572;2022-12-29T09:42:15;95973.41;;;8.04;100.00
65614;BME280;52283;49.292;10.572;2022-12-29T09:44:51;96002.25;;;8.07;100.00
65614;BME280;52283;49.292;10.572;2022-12-29T09:47:21;95971.69;;;8.12;100.00
65614;BME280;52283;49.292;10.572;2022-12-29T09:49:54;95981.34;;;8.17;100.00
65614;BME280;52283;49.292;10.572;2022-12-29T09:52:24;95973.75;;;8.17;100.00
65614;BME280;52283;49.292;10.572;2022-12-29T09:54:56;95986.41;;;8.18;100.00
65614;BME280;52283;49.292;10.572;2022-12-29T09:57:27;95983.88;;;8.20;100.00
65614;BME280;52283;49.292;10.572;2022-12-29T09:59:58;95984.13;;;8.22;100.00
65614;BME280;52283;49.292;10.572;2022-12-29T10:02:33;95983.38;;;8.27;100.00
65614;BME280;52283;49.292;10.572;2022-12-29T10:05:12;95984.41;;;8.30;100.00
65614;BME280;52283;49.292;10.572;2022-12-29T10:07:45;95976.13;;;8.36;100.00
65614;BME280;52283;49.292;10.572;2022-12-29T10:10:29;95968.78;;;8.38;100.00
65614;BME280;52283;49.292;10.572;2022-12-29T10:13:03;95967.53;;;8.45;100.00
65614;BME280;52283;49.292;10.572;2022-12-29T10:15:48;95966.78;;;8.50;100.00
65614;BME280;52283;49.292;10.572;2022-12-29T10:21:17;95972.16;;;8.59;100.00
65614;BME280;52283;49.292;10.572;2022-12-29T10:23:50;95969.13;;;8.74;100.00
65614;BME280;52283;49.292;10.572;2022-12-29T10:26:20;95967.91;;;8.80;100.00
65614;BME280;52283;49.292;10.572;2022-12-29T10:28:50;95964.88;;;8.78;100.00
65614;BME280;52283;49.292;10.572;2022-12-29T10:31:21;95969.94;;;8.80;100.00
65614;BME280;52283;49.292;10.572;2022-12-29T10:33:49;95969.44;;;8.81;100.00
65614;BME280;52283;49.292;10.572;2022-12-29T10:36:26;95967.41;;;8.82;100.00
65614;BME280;52283;49.292;10.572;2022-12-29T10:39:02;95962.59;;;8.82;100.00
65614;BME280;52283;49.292;10.572;2022-12-29T10:41:36;95953.22;;;8.85;100.00
65614;BME280;52283;49.292;10.572;2022-12-29T10:44:04;95952.47;;;8.85;100.00
65614;BME280;52283;49.292;10.572;2022-12-29T10:46:34;95951.44;;;8.88;100.00
65614;BME280;52283;49.292;10.572;2022-12-29T10:49:02;95958.28;;;8.93;100.00
65614;BME280;52283;49.292;10.572;2022-12-29T10:51:32;95953.47;;;8.88;100.00
65614;BME280;52283;49.292;10.572;2022-12-29T10:54:05;95956.03;;;8.97;100.00
65614;BME280;52283;49.292;10.572;2022-12-29T10:56:38;95951.97;;;8.98;100.00
65614;BME280;52283;49.292;10.572;2022-12-29T10:59:11;95949.19;;;8.98;100.00
65614;BME280;52283;49.292;10.572;2022-12-29T11:01:48;95952.47;;;8.96;100.00
65614;BME280;52283;49.292;10.572;2022-12-29T11:04:28;95956.53;;;9.01;100.00
65614;BME280;52283;49.292;10.572;2022-12-29T11:07:00;95947.91;;;8.93;100.00
65614;BME280;52283;49.292;10.572;2022-12-29T11:09:29;95947.91;;;8.93;100.00
65614;BME280;52283;49.292;10.572;2022-12-29T11:11:57;95952.47;;;8.85;100.00
65614;BME280;52283;49.292;10.572;2022-12-29T11:14:27;95959.03;;;8.82;100.00
65614;BME280;52283;49.292;10.572;2022-12-29T11:16:57;95955.72;;;8.72;100.00
65614;BME280;52283;49.292;10.572;2022-12-29T11:19:26;95955.25;;;8.79;100.00
65614;BME280;52283;49.292;10.572;2022-12-29T11:21:53;95948.91;;;8.84;100.00
65614;BME280;52283;49.292;10.572;2022-12-29T11:24:23;95935.50;;;8.83;100.00
65614;BME280;52283;49.292;10.572;2022-12-29T11:26:51;95943.84;;;8.94;100.00
65614;BME280;52283;49.292;10.572;2022-12-29T11:29:27;95942.09;;;9.08;100.00
65614;BME280;52283;49.292;10.572;2022-12-29T11:31:55;95936.00;;;9.26;100.00
65614;BME280;52283;49.292;10.572;2022-12-29T11:34:25;95942.59;;;9.29;100.00
65614;BME280;52283;49.292;10.572;2022-12-29T11:36:57;95936.28;;;9.39;100.00
65614;BME280;52283;49.292;10.572;2022-12-29T11:39:30;95935.50;;;9.50;100.00
65614;BME280;52283;49.292;10.572;2022-12-29T11:41:57;95940.31;;;9.61;100.00
65614;BME280;52283;49.292;10.572;2022-12-29T11:44:26;95946.34;;;9.76;100.00
65614;BME280;52283;49.292;10.572;2022-12-29T11:46:53;95938.97;;;9.78;100.00
65614;BME280;52283;49.292;10.572;2022-12-29T11:49:22;95931.41;;;9.79;100.00
65614;BME280;52283;49.292;10.572;2022-12-29T11:51:51;95942.56;;;9.79;100.00
65614;BME280;52283;49.292;10.572;2022-12-29T11:54:23;95941.53;;;9.76;100.00
65614;BME280;52283;49.292;10.572;2022-12-29T11:56:53;95949.38;;;9.78;100.00
65614;BME280;52283;49.292;10.572;2022-12-29T11:59:37;95957.00;;;9.83;100.00
65614;BME280;52283;49.292;10.572;2022-12-29T12:02:19;95948.88;;;9.85;100.00
65614;BME280;52283;49.292;10.572;2022-12-29T12:04:50;95940.25;;;9.83;100.00
65614;BME280;52283;49.292;10.572;2022-12-29T12:07:20;95966.91;;;9.84;100.00
65614;BME280;52283;49.292;10.572;2022-12-29T12:09:50;95964.88;;;9.79;100.00
65614;BME280;52283;49.292;10.572;2022-12-29T12:12:24;95970.22;;;9.71;100.00
65614;BME280;52283;49.292;10.572;2022-12-29T12:14:55;95966.16;;;9.72;100.00
65614;BME280;52283;49.292;10.572;2022-12-29T12:17:28;95949.66;;;9.74;100.00
65614;BME280;52283;49.292;10.572;2022-12-29T12:20:06;95949.91;;;9.71;100.00
65614;BME280;52283;49.292;10.572;2022-12-29T12:22:42;95941.81;;;9.67;100.00
65614;BME280;52283;49.292;10.572;2022-12-29T12:25:12;95947.91;;;9.66;100.00
65614;BME280;52283;49.292;10.572;2022-12-29T12:27:46;95950.47;;;9.58;100.00
65614;BME280;52283;49.292;10.572;2022-12-29T12:30:16;95944.88;;;9.58;100.00
65614;BME280;52283;49.292;10.572;2022-12-29T12:32:46;95946.66;;;9.61;100.00
65614;BME280;52283;49.292;10.572;2022-12-29T12:35:21;95944.09;;;9.63;100.00
65614;BME280;52283;49.292;10.572;2022-12-29T12:38:05;95956.00;;;9.69;100.00
65614;BME280;52283;49.292;10.572;2022-12-29T12:40:45;95941.53;;;9.82;100.00
65614;BME280;52283;49.292;10.572;2022-12-29T12:43:29;95941.47;;;9.99;100.00
65614;BME280;52283;49.292;10.572;2022-12-29T12:46:12;95951.84;;;10.09;100.00
65614;BME280;52283;49.292;10.572;2022-12-29T12:49:07;95948.56;;;10.11;100.00
65614;BME280;52283;49.292;10.572;2022-12-29T12:51:47;95945.22;;;10.18;100.00
65614;BME280;52283;49.292;10.572;2022-12-29T12:54:31;95943.69;;;10.17;100.00
65614;BME280;52283;49.292;10.572;2022-12-29T12:57:08;95938.13;;;10.17;100.00
65614;BME280;52283;49.292;10.572;2022-12-29T12:59:51;95944.72;;;10.14;100.00
65614;BME280;52283;49.292;10.572;2022-12-29T13:02:28;95946.00;;;10.13;100.00
65614;BME280;52283;49.292;10.572;2022-12-29T13:05:09;95934.84;;;10.13;100.00
65614;BME280;52283;49.292;10.572;2022-12-29T13:07:49;95940.97;;;10.06;100.00
65614;BME280;52283;49.292;10.572;2022-12-29T13:10:31;95945.53;;;10.03;100.00